Time;durP1;ratioP1;P1;durP2;ratioP2;P2;SDS_P1;SDS_P2;PMS_P1;PMS_P2;Temp;Humidity;BMP_temperature;BMP_pressure;BME280_temperature;BME280_humidity;BME280_pressure;Samples;Min_cycle;Max_cycle;Signal;HPM_P1;HPM_P2
2022/12/14 00:01:08;;;;;;;46.13;29.33;;;-2.10;99.90;;;;;;5096720;28;20043;-88
2022/12/14 00:03:34;;;;;;;44.00;27.38;;;-2.10;99.90;;;;;;5098701;28;20058;-87
2022/12/14 00:06:18;;;;;;;44.58;28.33;;;-2.00;99.90;;;;;;5098424;28;20385;-88
2022/12/14 00:08:45;;;;;;;45.13;28.17;;;-2.00;99.90;;;;;;5098253;28;20058;-87
2022/12/14 00:11:13;;;;;;;44.03;27.30;;;-2.00;99.90;;;;;;5097701;28;20052;-88
2022/12/14 00:13:40;;;;;;;43.05;27.40;;;-2.00;99.90;;;;;;5097146;28;20047;-88
2022/12/14 00:16:11;;;;;;;47.45;29.33;;;-2.00;99.90;;;;;;5113879;28;20055;-87
2022/12/14 00:18:38;;;;;;;41.90;27.48;;;-2.00;99.90;;;;;;5097030;28;20056;-86
2022/12/14 00:21:11;;;;;;;44.95;26.88;;;-2.10;99.90;;;;;;5097623;28;20047;-87
2022/12/14 00:23:39;;;;;;;45.28;27.23;;;-0.60;99.90;;;;;;5096789;28;20047;-87
2022/12/14 00:26:17;;;;;;;46.20;26.23;;;-2.10;99.90;;;;;;5097515;28;20143;-87
2022/12/14 00:28:44;;;;;;;42.33;27.10;;;-2.10;99.90;;;;;;5097334;27;20139;-88
2022/12/14 00:31:10;;;;;;;44.00;28.13;;;-0.50;99.90;;;;;;5100382;27;20150;-88
2022/12/14 00:33:36;;;;;;;43.50;27.10;;;-2.10;99.90;;;;;;5099910;27;20453;-87
2022/12/14 00:36:04;;;;;;;43.83;27.27;;;-0.50;99.90;;;;;;5116901;27;20051;-88
2022/12/14 00:38:30;;;;;;;45.17;27.67;;;-2.20;99.90;;;;;;5101347;27;20051;-87
2022/12/14 00:40:56;;;;;;;45.35;27.33;;;-2.20;99.90;;;;;;5088162;28;20545;-87
2022/12/14 00:43:22;;;;;;;44.92;28.45;;;-2.30;99.90;;;;;;5060139;28;20083;-87
2022/12/14 00:45:48;;;;;;;45.00;28.20;;;-2.30;99.90;;;;;;5059472;28;20109;-87
2022/12/14 00:48:16;;;;;;;43.63;28.08;;;-2.40;99.90;;;;;;5058879;28;20048;-88
2022/12/14 00:50:44;;;;;;;42.25;28.63;;;-1.20;99.90;;;;;;5059653;28;20495;-87
2022/12/14 00:53:09;;;;;;;45.33;28.85;;;-2.40;99.90;;;;;;5075386;27;20039;-87
2022/12/14 00:55:40;;;;;;;45.17;29.02;;;-2.50;99.90;;;;;;5116876;27;20535;-87
2022/12/14 00:58:08;;;;;;;45.53;29.15;;;-1.10;99.90;;;;;;5099458;27;20158;-88
2022/12/14 01:00:34;;;;;;;45.58;29.60;;;-2.50;99.90;;;;;;5116885;27;20043;-87
2022/12/14 01:03:00;;;;;;;48.75;29.92;;;-2.50;99.90;;;;;;5100621;28;20061;-87
2022/12/14 01:05:26;;;;;;;46.50;29.20;;;-2.60;99.90;;;;;;5118526;27;20047;-87
2022/12/14 01:07:51;;;;;;;48.88;29.90;;;-2.60;99.90;;;;;;5100842;27;20146;-87
2022/12/14 01:10:17;;;;;;;44.95;28.67;;;-2.30;99.90;;;;;;5100014;27;20079;-87
2022/12/14 01:12:43;;;;;;;46.05;27.88;;;-2.70;99.90;;;;;;5100262;27;20403;-87
2022/12/14 01:15:09;;;;;;;44.90;28.58;;;-2.70;99.90;;;;;;5099846;28;20046;-87
2022/12/14 01:17:35;;;;;;;44.00;28.60;;;-2.70;99.90;;;;;;5099025;28;20043;-87
2022/12/14 01:20:01;;;;;;;48.95;28.20;;;-2.40;99.90;;;;;;5098826;28;20054;-88
2022/12/14 01:22:26;;;;;;;44.45;27.52;;;-2.80;99.90;;;;;;5098431;28;20406;-88
2022/12/14 01:24:52;;;;;;;46.65;28.75;;;-1.00;99.90;;;;;;5116667;28;20074;-87
2022/12/14 01:27:18;;;;;;;44.70;28.30;;;-2.80;99.90;;;;;;5098940;28;20050;-88
2022/12/14 01:29:43;;;;;;;47.17;27.55;;;-2.80;99.90;;;;;;5086376;28;20122;-87
2022/12/14 01:32:09;;;;;;;47.13;27.23;;;-2.80;99.90;;;;;;5066687;28;20060;-87
2022/12/14 01:34:35;;;;;;;40.80;26.65;;;-2.80;99.90;;;;;;5060446;28;20048;-87
2022/12/14 01:37:01;;;;;;;44.45;26.75;;;-2.80;99.90;;;;;;5075368;28;20051;-87
2022/12/14 01:39:27;;;;;;;44.03;27.63;;;-2.80;99.90;;;;;;5058873;28;20056;-86
2022/12/14 01:41:52;;;;;;;45.42;28.85;;;-2.90;99.90;;;;;;5058909;28;20050;-87
2022/12/14 01:44:18;;;;;;;43.13;27.58;;;-2.90;99.90;;;;;;5058331;28;20051;-87
2022/12/14 01:46:47;;;;;;;47.10;27.27;;;-2.90;99.90;;;;;;5057443;28;20116;-87
2022/12/14 01:49:25;;;;;;;45.35;27.33;;;-2.90;99.90;;;;;;5059633;28;20054;-87
2022/12/14 01:51:59;;;;;;;42.47;26.67;;;-2.90;99.90;;;;;;5076761;28;20075;-86
2022/12/14 01:54:29;;;;;;;42.40;26.58;;;-1.60;99.90;;;;;;5073910;28;20389;-87
2022/12/14 01:56:55;;;;;;;45.47;27.38;;;-2.90;99.90;;;;;;5076304;28;20055;-87
2022/12/14 01:59:29;;;;;;;42.17;26.60;;;-1.80;99.90;;;;;;5074587;28;20039;-87
2022/12/14 02:01:57;;;;;;;44.80;27.33;;;-3.00;99.90;;;;;;5063449;28;20052;-87
2022/12/14 02:04:23;;;;;;;42.75;26.80;;;-3.00;99.90;;;;;;5046670;28;20044;-87
2022/12/14 02:06:51;;;;;;;43.70;27.05;;;-3.00;99.90;;;;;;5054983;28;20109;-87
2022/12/14 02:09:22;;;;;;;42.60;27.25;;;-1.30;99.90;;;;;;5070997;28;20048;-87
2022/12/14 02:12:03;;;;;;;45.38;28.05;;;-3.10;99.90;;;;;;5060084;28;20059;-87
2022/12/14 02:14:29;;;;;;;44.83;27.98;;;-3.10;99.90;;;;;;5086252;28;20130;-87
2022/12/14 02:16:56;;;;;;;47.38;29.55;;;-1.50;99.90;;;;;;5054793;28;20052;-87
2022/12/14 02:19:22;;;;;;;44.85;28.05;;;-3.10;99.90;;;;;;5054065;28;20052;-87
2022/12/14 02:22:00;;;;;;;44.05;27.70;;;-3.10;99.90;;;;;;5049472;28;20047;-87
2022/12/14 02:24:47;;;;;;;46.58;29.77;;;-3.20;99.90;;;;;;5072401;28;20048;-86
2022/12/14 02:27:48;;;;;;;47.20;28.50;;;-3.20;99.90;;;;;;5044408;28;20057;-87
2022/12/14 02:30:19;;;;;;;48.72;29.30;;;-3.20;99.90;;;;;;5076040;28;20063;-86
2022/12/14 02:33:01;;;;;;;49.85;29.60;;;-3.20;99.90;;;;;;5116001;28;20051;-86
2022/12/14 02:35:45;;;;;;;47.55;29.35;;;-3.20;99.90;;;;;;5117180;28;20517;-87
2022/12/14 02:38:21;;;;;;;46.83;28.10;;;-3.20;99.90;;;;;;5117283;28;20055;-87
2022/12/14 02:41:13;;;;;;;48.55;28.27;;;-3.30;99.90;;;;;;5098385;28;20044;-87
2022/12/14 02:44:03;;;;;;;44.35;27.02;;;-3.30;99.90;;;;;;5082581;28;20408;-87
2022/12/14 02:46:40;;;;;;;44.95;27.25;;;-3.30;99.90;;;;;;5107595;28;20051;-87
2022/12/14 02:49:36;;;;;;;49.08;28.98;;;-3.30;99.90;;;;;;5115528;28;20044;-87
2022/12/14 02:52:14;;;;;;;48.90;29.60;;;-3.30;99.90;;;;;;5114916;28;20467;-87
2022/12/14 02:54:56;;;;;;;47.38;28.65;;;-2.10;99.90;;;;;;5085235;28;20047;-87
2022/12/14 02:57:30;;;;;;;46.22;28.15;;;-3.30;99.90;;;;;;5063096;28;20047;-87
2022/12/14 03:00:00;;;;;;;46.13;28.13;;;-2.20;99.90;;;;;;5107959;27;20057;-87
2022/12/14 03:02:27;;;;;;;48.90;29.65;;;-3.40;99.90;;;;;;5087149;28;20052;-87
2022/12/14 03:04:53;;;;;;;49.20;29.52;;;-3.40;99.90;;;;;;5098873;27;20116;-86
2022/12/14 03:07:46;;;;;;;49.83;30.35;;;-3.40;99.90;;;;;;5109176;28;20134;-86
2022/12/14 03:10:18;;;;;;;46.40;29.45;;;-3.40;99.90;;;;;;5098526;27;20043;-87
2022/12/14 03:12:49;;;;;;;48.55;29.88;;;-3.20;99.90;;;;;;5114158;28;20388;-86
2022/12/14 03:15:17;;;;;;;48.63;31.00;;;-1.80;99.90;;;;;;5081839;28;20125;-87
2022/12/14 03:17:47;;;;;;;52.00;29.50;;;-2.40;99.90;;;;;;5085682;27;20082;-87
2022/12/14 03:20:19;;;;;;;49.05;30.23;;;-3.50;99.90;;;;;;5084381;27;20130;-87
2022/12/14 03:23:02;;;;;;;51.53;29.02;;;-3.50;99.90;;;;;;5100650;27;20566;-87
2022/12/14 03:25:45;;;;;;;46.55;28.05;;;-3.50;99.90;;;;;;5086533;27;20100;-87
2022/12/14 03:28:33;;;;;;;48.10;29.30;;;-3.50;99.90;;;;;;5115894;27;20136;-87
2022/12/14 03:31:05;;;;;;;47.53;28.40;;;-3.50;99.90;;;;;;5076546;28;20153;-87
2022/12/14 03:33:32;;;;;;;47.53;29.20;;;-3.60;99.90;;;;;;5113100;28;20357;-87
2022/12/14 03:36:26;;;;;;;48.95;29.13;;;-3.60;99.90;;;;;;5094320;28;20048;-87
2022/12/14 03:38:56;;;;;;;49.00;28.27;;;-3.60;99.90;;;;;;5101764;28;20055;-87
2022/12/14 03:41:34;;;;;;;50.50;30.00;;;-3.60;99.90;;;;;;5081971;28;20105;-87
2022/12/14 03:44:23;;;;;;;49.63;30.00;;;-3.60;99.90;;;;;;5088692;28;20059;-87
2022/12/14 03:47:02;;;;;;;50.88;31.25;;;-3.60;99.90;;;;;;5085689;28;20522;-86
2022/12/14 03:49:34;;;;;;;52.95;33.40;;;-2.30;99.90;;;;;;5074347;28;20122;-86
2022/12/14 03:52:14;;;;;;;49.80;31.08;;;-3.70;99.90;;;;;;5084520;28;20044;-87
2022/12/14 03:55:01;;;;;;;56.58;33.67;;;-3.60;99.90;;;;;;5083991;28;20080;-86
2022/12/14 03:57:36;;;;;;;53.22;33.55;;;-3.60;99.90;;;;;;5095038;28;20098;-87
2022/12/14 04:00:09;;;;;;;52.13;31.35;;;-2.40;99.90;;;;;;5078163;28;20448;-87
2022/12/14 04:03:09;;;;;;;52.28;31.95;;;-3.70;99.90;;;;;;5096673;28;20047;-86
2022/12/14 04:05:44;;;;;;;54.72;31.77;;;-3.60;99.90;;;;;;5056487;28;20063;-87
2022/12/14 04:08:32;;;;;;;45.92;29.73;;;-3.80;99.90;;;;;;5074002;28;20048;-87
2022/12/14 04:19:47;;;;;;;50.97;29.73;;;-3.80;99.90;;;;;;5104330;28;20054;-86
2022/12/14 04:22:17;;;;;;;54.65;29.33;;;-3.80;99.90;;;;;;5073602;28;20476;-87
2022/12/14 04:27:54;;;;;;;53.45;29.80;;;-3.90;99.90;;;;;;5100506;28;20516;-87
2022/12/14 04:30:19;;;;;;;52.35;30.13;;;-3.90;99.90;;;;;;5089032;28;20446;-87
2022/12/14 04:32:45;;;;;;;45.55;28.77;;;-3.50;99.90;;;;;;5060244;28;20074;-86
2022/12/14 04:35:34;;;;;;;49.40;28.73;;;-3.90;99.90;;;;;;5079774;28;20562;-86
2022/12/14 04:38:20;;;;;;;49.70;29.92;;;-3.90;99.90;;;;;;5091079;28;20050;-86
2022/12/14 04:40:55;;;;;;;;;;;-4.00;99.90;;;;;;5082373;28;20488;-86
2022/12/14 04:43:24;;;;;;;51.67;30.63;;;-4.00;99.90;;;;;;5086734;28;19920;-86
2022/12/14 04:46:05;;;;;;;50.72;30.42;;;-4.00;99.90;;;;;;5059969;28;20102;-86
2022/12/14 04:48:34;;;;;;;53.58;30.63;;;-4.00;99.90;;;;;;5050389;28;20055;-86
2022/12/14 04:51:17;;;;;;;52.40;30.25;;;-4.00;99.90;;;;;;5076834;28;20060;-87
2022/12/14 04:53:47;;;;;;;51.70;30.38;;;-4.00;99.90;;;;;;5089147;28;20059;-86
2022/12/14 04:56:39;;;;;;;52.00;29.70;;;-2.60;99.90;;;;;;5077520;28;20044;-85
2022/12/14 04:59:05;;;;;;;54.60;30.70;;;-4.10;99.90;;;;;;5087762;28;20438;-86
2022/12/14 05:02:10;;;;;;;54.83;31.65;;;-2.50;99.90;;;;;;5083735;28;20135;-87
2022/12/14 05:04:53;;;;;;;56.45;32.35;;;-4.10;99.90;;;;;;5042963;28;20081;-86
2022/12/14 05:07:46;;;;;;;53.40;32.17;;;-4.10;99.90;;;;;;5038643;28;20527;-87
2022/12/14 05:10:24;;;;;;;53.17;30.77;;;-4.10;99.90;;;;;;5109780;28;20385;-86
2022/12/14 05:13:05;;;;;;;54.55;31.60;;;-4.10;99.90;;;;;;5073452;28;20052;-86
2022/12/14 05:15:45;;;;;;;51.72;30.17;;;-4.10;99.90;;;;;;5089046;28;20130;-86
2022/12/14 05:18:10;;;;;;;51.35;30.73;;;-4.10;99.90;;;;;;5076707;28;20112;-87
2022/12/14 05:20:36;;;;;;;56.17;31.63;;;-4.20;99.90;;;;;;5057849;28;20056;-86
2022/12/14 05:23:02;;;;;;;52.42;30.60;;;-2.40;99.90;;;;;;5042480;28;20404;-86
2022/12/14 05:25:28;;;;;;;56.55;31.50;;;-4.20;99.90;;;;;;5044817;28;20040;-86
2022/12/14 05:27:53;;;;;;;54.83;32.42;;;-4.20;99.90;;;;;;5058725;28;20450;-87
2022/12/14 05:30:19;;;;;;;53.47;30.10;;;-4.20;99.90;;;;;;5077651;28;20052;-86
2022/12/14 05:32:45;;;;;;;56.40;30.42;;;-4.20;99.90;;;;;;5110955;28;20051;-87
2022/12/14 05:35:12;;;;;;;51.33;30.35;;;-2.40;99.90;;;;;;5096340;28;20048;-87
2022/12/14 05:37:38;;;;;;;53.45;30.27;;;-3.60;99.90;;;;;;5089693;28;20514;-87
2022/12/14 05:40:05;;;;;;;53.95;30.23;;;-2.50;99.90;;;;;;5077473;28;20045;-86
2022/12/14 05:42:31;;;;;;;53.20;29.95;;;-4.20;99.90;;;;;;5080072;28;20052;-87
2022/12/14 05:44:57;;;;;;;55.20;31.35;;;-2.60;99.90;;;;;;5088667;28;20040;-87
2022/12/14 05:47:23;;;;;;;55.00;29.77;;;-4.20;99.90;;;;;;5086618;28;20602;-87
2022/12/14 05:49:48;;;;;;;52.78;29.88;;;-4.30;99.90;;;;;;5076893;28;20054;-87
2022/12/14 05:52:14;;;;;;;53.97;31.63;;;-2.60;99.90;;;;;;5056715;28;20140;-86
2022/12/14 05:54:40;;;;;;;53.90;30.67;;;-4.30;99.90;;;;;;5103226;28;20460;-86
2022/12/14 05:57:06;;;;;;;53.25;30.88;;;-4.30;99.90;;;;;;5078507;28;20048;-87
2022/12/14 05:59:32;;;;;;;53.00;30.20;;;-4.30;99.90;;;;;;5086499;28;20063;-87
2022/12/14 06:01:58;;;;;;;54.85;30.35;;;-4.30;99.90;;;;;;5080801;28;20101;-86
2022/12/14 06:04:24;;;;;;;54.85;30.42;;;-4.30;99.90;;;;;;5106163;28;20094;-86
2022/12/14 06:06:50;;;;;;;51.15;28.45;;;-4.30;99.90;;;;;;5079753;28;20519;-86
2022/12/14 06:09:17;;;;;;;51.38;28.55;;;-3.00;99.90;;;;;;5086852;28;20043;-86
2022/12/14 06:11:44;;;;;;;49.88;29.25;;;-4.30;99.90;;;;;;5086340;28;20064;-86
2022/12/14 06:14:11;;;;;;;50.92;29.52;;;-4.30;99.90;;;;;;5098692;28;20200;-87
2022/12/14 06:16:40;;;;;;;50.88;28.50;;;-4.40;99.90;;;;;;5115493;28;20121;-86
2022/12/14 06:19:06;;;;;;;54.80;30.00;;;-4.40;99.90;;;;;;5086098;28;20049;-86
2022/12/14 06:21:35;;;;;;;49.92;28.83;;;-3.00;99.90;;;;;;5075150;28;20051;-86
2022/12/14 06:24:02;;;;;;;53.13;29.15;;;-4.40;99.90;;;;;;5075633;28;20053;-86
2022/12/14 06:26:29;;;;;;;51.50;28.98;;;-4.30;99.90;;;;;;5071260;28;20051;-86
2022/12/14 06:28:56;;;;;;;49.65;27.80;;;-4.40;99.90;;;;;;5099969;28;20118;-86
2022/12/14 06:31:24;;;;;;;48.88;28.13;;;-3.80;99.90;;;;;;5100245;28;20111;-86
2022/12/14 06:33:52;;;;;;;54.67;29.20;;;-4.40;99.90;;;;;;5106203;28;20456;-87
2022/12/14 06:36:45;;;;;;;49.85;28.55;;;-3.70;99.90;;;;;;5083920;28;20449;-86
2022/12/14 06:39:14;;;;;;;49.95;28.02;;;-4.40;99.90;;;;;;5096217;28;20146;-87
2022/12/14 06:41:40;;;;;;;51.22;28.75;;;-4.40;99.90;;;;;;5082480;28;20044;-86
2022/12/14 06:44:12;;;;;;;52.10;28.33;;;-4.40;99.90;;;;;;5098489;28;20142;-87
2022/12/14 06:46:38;;;;;;;50.00;27.92;;;-4.20;99.90;;;;;;5081452;28;20047;-87
2022/12/14 06:49:05;;;;;;;54.65;29.23;;;-4.40;99.90;;;;;;5081627;28;20048;-87
2022/12/14 06:51:31;;;;;;;52.10;27.92;;;-4.40;99.90;;;;;;5081367;28;20051;-86
2022/12/14 06:53:57;;;;;;;52.95;28.38;;;-2.50;99.90;;;;;;5082376;28;20060;-86
2022/12/14 06:56:25;;;;;;;47.72;27.45;;;-4.50;99.90;;;;;;5098628;28;20047;-86
2022/12/14 06:58:53;;;;;;;50.95;28.48;;;-4.50;99.90;;;;;;5078734;28;20113;-86
2022/12/14 07:01:21;;;;;;;54.88;28.63;;;-2.40;99.90;;;;;;5091257;27;20060;-85
2022/12/14 07:03:55;;;;;;;53.05;29.23;;;-2.80;99.90;;;;;;5081693;28;20364;-86
2022/12/14 07:06:23;;;;;;;56.58;28.60;;;-4.40;99.90;;;;;;5100823;28;20055;-86
2022/12/14 07:08:52;;;;;;;53.15;29.30;;;-2.90;99.90;;;;;;5099497;28;20043;-86
2022/12/14 07:11:18;;;;;;;54.03;29.58;;;-3.60;99.90;;;;;;5077568;28;20080;-86
2022/12/14 07:13:44;;;;;;;55.17;30.70;;;-2.60;99.90;;;;;;5076357;28;20133;-80
2022/12/14 07:16:15;;;;;;;56.50;31.02;;;-4.60;99.90;;;;;;5092721;28;20079;-86
2022/12/14 07:18:41;;;;;;;54.10;30.55;;;-4.50;99.90;;;;;;5060270;28;20052;-85
2022/12/14 07:21:08;;;;;;;52.55;31.42;;;-4.50;99.90;;;;;;5060508;28;20048;-86
2022/12/14 07:23:36;;;;;;;54.95;30.55;;;-4.40;99.90;;;;;;5097174;27;20122;-86
2022/12/14 07:26:04;;;;;;;56.55;29.52;;;-4.50;99.90;;;;;;5101308;27;20093;-88
2022/12/14 07:28:31;;;;;;;54.25;29.30;;;-4.40;99.90;;;;;;5134901;27;20051;-85
2022/12/14 07:30:58;;;;;;;51.10;28.23;;;-4.50;99.90;;;;;;5117207;27;20058;-85
2022/12/14 07:33:25;;;;;;;52.33;28.10;;;-4.40;99.90;;;;;;5100221;27;20050;-86
2022/12/14 07:35:51;;;;;;;52.08;29.42;;;-4.50;99.90;;;;;;5100654;27;20055;-87
2022/12/14 07:38:17;;;;;;;51.20;29.45;;;-4.50;99.90;;;;;;5117753;27;20051;-87
2022/12/14 07:40:44;;;;;;;47.35;28.17;;;-4.40;99.90;;;;;;5106584;28;20043;-86
2022/12/14 07:43:09;;;;;;;48.35;29.17;;;-2.40;99.90;;;;;;5079897;28;20381;-87
2022/12/14 07:45:35;;;;;;;48.17;28.35;;;-4.40;99.90;;;;;;5063734;27;20143;-86
2022/12/14 07:48:01;;;;;;;47.05;27.90;;;-4.40;99.90;;;;;;5116877;27;20444;-86
2022/12/14 07:50:27;;;;;;;46.47;26.63;;;-4.50;99.90;;;;;;5093817;28;20135;-87
2022/12/14 07:52:53;;;;;;;52.03;27.17;;;-2.90;99.90;;;;;;5080491;28;20051;-86
2022/12/14 07:55:18;;;;;;;52.20;28.30;;;-4.50;99.90;;;;;;5079057;28;20159;-86
2022/12/14 07:57:44;;;;;;;48.00;27.02;;;-5.50;99.90;;;;;;5096236;28;20047;-86
2022/12/14 08:00:10;;;;;;;47.22;27.38;;;-4.80;99.90;;;;;;5104954;27;20460;-85
2022/12/14 08:02:36;;;;;;;43.40;24.90;;;-4.30;99.90;;;;;;5100488;28;20049;-85
2022/12/14 08:05:02;;;;;;;44.95;26.17;;;-3.20;99.90;;;;;;5080461;28;20130;-85
2022/12/14 08:07:30;;;;;;;48.13;26.25;;;-4.20;99.90;;;;;;5097883;28;20051;-85
2022/12/14 08:09:56;;;;;;;46.83;24.52;;;-2.80;99.90;;;;;;5104853;27;20407;-85
2022/12/14 08:12:21;;;;;;;45.70;25.10;;;-4.20;99.90;;;;;;5099892;27;20049;-85
2022/12/14 08:14:47;;;;;;;46.63;26.35;;;-2.50;99.90;;;;;;5117066;27;20130;-84
2022/12/14 08:17:14;;;;;;;41.42;24.33;;;-4.40;99.90;;;;;;5099913;27;20073;-85
2022/12/14 08:19:40;;;;;;;44.03;26.23;;;-2.10;99.90;;;;;;5100340;27;20134;-84
2022/12/14 08:22:05;;;;;;;42.30;24.42;;;-2.10;99.90;;;;;;5100105;27;20130;-83
2022/12/14 08:24:31;;;;;;;43.22;24.13;;;-5.30;99.90;;;;;;5100034;28;20075;-82
2022/12/14 08:26:57;;;;;;;42.42;23.88;;;-1.80;99.90;;;;;;5095802;28;20112;-83
2022/12/14 08:29:23;;;;;;;44.72;25.75;;;-3.00;99.90;;;;;;5129882;27;20421;-82
2022/12/14 08:31:49;;;;;;;43.42;24.90;;;-4.40;99.90;;;;;;5111171;27;20067;-84
2022/12/14 08:34:21;;;;;;;45.63;26.27;;;-4.10;99.90;;;;;;5133420;27;20105;-83
2022/12/14 08:36:47;;;;;;;43.22;25.00;;;-3.30;99.90;;;;;;5115642;27;20375;-82
2022/12/14 08:39:13;;;;;;;43.88;25.05;;;-4.10;99.90;;;;;;5097670;27;20189;-84
2022/12/14 08:41:39;;;;;;;40.58;23.52;;;-4.10;99.90;;;;;;5082903;27;20043;-86
2022/12/14 08:44:05;;;;;;;42.95;24.58;;;-4.10;99.90;;;;;;5116362;27;20137;-88
2022/12/14 08:46:33;;;;;;;41.75;23.83;;;-3.90;99.90;;;;;;5134434;27;20047;-85
2022/12/14 08:48:59;;;;;;;40.80;23.33;;;-3.90;99.90;;;;;;5134658;27;20491;-88
2022/12/14 08:51:26;;;;;;;41.05;24.55;;;-2.40;99.90;;;;;;5127399;27;20131;-82
2022/12/14 08:53:53;;;;;;;44.92;24.40;;;-2.20;99.90;;;;;;5107958;27;20074;-84
2022/12/14 08:56:21;;;;;;;41.45;23.40;;;-3.70;99.90;;;;;;5114936;27;20039;-85
2022/12/14 08:58:47;;;;;;;43.15;23.98;;;-1.70;99.90;;;;;;5079703;27;20051;-84
2022/12/14 09:01:16;;;;;;;49.22;25.85;;;-1.80;99.90;;;;;;5119722;27;20051;-85
2022/12/14 09:03:45;;;;;;;44.97;26.02;;;-3.40;99.90;;;;;;5105895;27;20039;-84
2022/12/14 09:06:17;;;;;;;38.90;23.40;;;-3.20;99.90;;;;;;5105864;28;20503;-83
2022/12/14 09:08:43;;;;;;;40.47;22.60;;;-1.30;99.90;;;;;;5098548;27;20110;-85
2022/12/14 09:11:13;;;;;;;43.00;24.13;;;-3.10;99.90;;;;;;5124454;27;20043;-85
2022/12/14 09:13:40;;;;;;;40.42;22.27;;;-0.90;99.90;;;;;;5085217;27;20047;-85
2022/12/14 09:16:17;;;;;;;36.05;21.25;;;-3.00;99.90;;;;;;5079382;28;20055;-85
2022/12/14 09:18:43;;;;;;;36.95;21.73;;;-2.70;99.90;;;;;;5095422;28;20052;-86
2022/12/14 09:21:10;;;;;;;38.55;23.00;;;-1.30;99.90;;;;;;5103786;28;20048;-87
2022/12/14 09:23:39;;;;;;;36.38;21.95;;;0.20;99.90;;;;;;5091478;28;20109;-86
2022/12/14 09:26:12;;;;;;;38.33;21.77;;;0.90;99.90;;;;;;5095020;28;20376;-80
2022/12/14 09:28:40;;;;;;;38.50;21.30;;;2.10;99.90;;;;;;5112702;28;20073;-88
2022/12/14 09:31:09;;;;;;;36.22;21.40;;;2.50;99.90;;;;;;5116805;28;20046;-86
2022/12/14 09:33:35;;;;;;;34.60;20.65;;;3.40;99.90;;;;;;5114369;28;20082;-86
2022/12/14 09:36:07;;;;;;;33.70;20.23;;;4.50;99.90;;;;;;5080855;28;20056;-85
2022/12/14 09:38:35;;;;;;;30.70;19.42;;;3.60;99.90;;;;;;5083072;28;20056;-86
2022/12/14 09:41:22;;;;;;;36.38;19.55;;;3.50;99.90;;;;;;5097061;28;20139;-86
2022/12/14 09:43:57;;;;;;;30.35;17.00;;;3.70;99.90;;;;;;5062892;28;20052;-87
2022/12/14 09:46:37;;;;;;;28.88;17.17;;;4.40;99.90;;;;;;5077037;27;20118;-86
2022/12/14 09:49:04;;;;;;;31.92;17.75;;;;;;;;;;5092394;27;20090;-86
2022/12/14 09:51:33;;;;;;;31.40;18.05;;;;;;;;;;5136907;27;20082;-86
2022/12/14 09:54:03;;;;;;;31.10;17.17;;;;;;;;;;5136971;27;20137;-80
2022/12/14 09:56:30;;;;;;;33.22;19.05;;;;;;;;;;5102996;28;20056;-81
2022/12/14 09:58:57;;;;;;;27.23;16.58;;;;;;;;;;5086671;28;20051;-81
2022/12/14 10:01:26;;;;;;;26.58;15.57;;;;;;;;;;5114507;28;20056;-81
2022/12/14 10:04:11;;;;;;;25.75;15.55;;;;;;;;;;5094782;28;20150;-81
2022/12/14 10:06:40;;;;;;;27.25;16.35;;;;;;;;;;5116088;28;20466;-81
2022/12/14 10:09:12;;;;;;;28.75;16.88;;;;;;;;;;5097858;28;20460;-81
2022/12/14 10:11:38;;;;;;;26.73;16.08;;;;;;;;;;5097818;28;20067;-81
2022/12/14 10:14:23;;;;;;;29.67;17.73;;;;;;;;;;5095305;27;20048;-82
2022/12/14 10:17:19;;;;;;;28.95;17.80;;;;;;;;;;5134959;27;20054;-81
2022/12/14 10:19:48;;;;;;;25.90;15.60;;;;;;;;;;5052763;27;20084;-82
2022/12/14 10:22:19;;;;;;;28.50;16.83;;;;;;;;;;5095580;28;20508;-81
2022/12/14 10:24:54;;;;;;;29.30;15.85;;;;;;;;;;5110736;27;20082;-81
2022/12/14 10:27:24;;;;;;;26.07;16.43;;;;;;;;;;5107478;27;20048;-81
2022/12/14 10:29:58;;;;;;;26.13;17.40;;;;;;;;;;5107564;27;20104;-81
2022/12/14 10:32:38;;;;;;;27.00;16.23;;;;;;;;;;5136957;27;20482;-82
2022/12/14 10:35:27;;;;;;;27.95;16.95;;;;;;;;;;5097406;28;20067;-82
2022/12/14 10:37:58;;;;;;;25.83;15.80;;;;;;;;;;5117513;27;20052;-82
2022/12/14 10:40:31;;;;;;;25.00;15.85;;;;;;;;;;5098128;27;20051;-82
2022/12/14 10:43:06;;;;;;;23.90;15.57;;;;;;;;;;5101585;27;20073;-83
2022/12/14 10:45:48;;;;;;;25.17;15.75;;;;;;;;;;5100440;27;20044;-82
2022/12/14 10:48:17;;;;;;;27.25;15.70;;;;;;;;;;5077090;28;20040;-82
2022/12/14 10:50:51;;;;;;;26.48;16.23;;;;;;;;;;5104735;27;20054;-83
2022/12/14 10:53:22;;;;;;;24.92;14.88;;;;;;;;;;5117767;27;20040;-83
2022/12/14 10:55:52;;;;;;;25.58;15.68;;;;;;;;;;5095669;28;20135;-85
2022/12/14 10:58:18;;;;;;;23.70;14.85;;;;;;;;;;5060881;28;20416;-84
2022/12/14 11:00:45;;;;;;;22.50;14.13;;;;;;;;;;5060378;28;20048;-85
2022/12/14 11:03:14;;;;;;;23.40;14.02;;;3.90;99.90;;;;;;5061240;28;20056;-86
2022/12/14 11:05:55;;;;;;;22.80;14.80;;;12.90;85.90;;;;;;5062850;27;20044;-86
2022/12/14 11:08:40;;;;;;;24.00;15.65;;;13.70;85.70;;;;;;5113635;27;20419;-87
2022/12/14 11:11:22;;;;;;;21.60;14.93;;;14.70;83.80;;;;;;5101239;27;20047;-87
2022/12/14 11:13:54;;;;;;;22.27;14.68;;;15.60;81.00;;;;;;5099847;27;20107;-87
2022/12/14 11:16:35;;;;;;;23.75;15.15;;;16.40;77.50;;;;;;5100305;27;20054;-87
2022/12/14 11:19:13;;;;;;;22.35;14.75;;;16.70;74.40;;;;;;5102108;27;20051;-87
2022/12/14 11:21:39;;;;;;;23.23;14.93;;;17.10;73.40;;;;;;5118849;27;20043;-87
2022/12/14 11:24:06;;;;;;;21.88;15.50;;;17.90;70.60;;;;;;5101120;27;20460;-87
2022/12/14 11:26:39;;;;;;;22.38;16.40;;;18.40;69.10;;;;;;5101232;27;20054;-87
2022/12/14 11:29:15;;;;;;;20.42;13.68;;;18.90;68.10;;;;;;5113079;28;20067;-86
2022/12/14 11:31:46;;;;;;;20.13;13.98;;;19.10;66.20;;;;;;5086186;28;20052;-87
2022/12/14 11:34:33;;;;;;;18.55;13.07;;;18.90;66.10;;;;;;5077082;28;20193;-86
2022/12/14 11:37:28;;;;;;;16.90;12.43;;;19.30;64.30;;;;;;5077566;28;20399;-87
2022/12/14 11:40:00;;;;;;;16.52;12.32;;;19.80;62.70;;;;;;5076775;28;20059;-87
2022/12/14 11:42:26;;;;;;;20.30;11.43;;;20.00;60.70;;;;;;5076749;28;20492;-87
2022/12/14 11:44:53;;;;;;;17.70;11.02;;;20.30;61.70;;;;;;5077155;28;20518;-88
2022/12/14 11:47:21;;;;;;;16.33;11.68;;;20.70;59.10;;;;;;5094650;28;20048;-87
2022/12/14 11:49:53;;;;;;;17.08;11.48;;;20.40;60.80;;;;;;5059075;28;20055;-88
2022/12/14 11:52:22;;;;;;;16.23;11.13;;;21.10;58.20;;;;;;5060800;28;20101;-87
2022/12/14 11:55:09;;;;;;;16.90;11.27;;;22.40;55.90;;;;;;5060880;28;20110;-86
2022/12/14 11:57:53;;;;;;;17.30;11.20;;;23.30;55.80;;;;;;5078096;28;20044;-88
2022/12/14 12:00:30;;;;;;;16.15;10.85;;;24.20;53.00;;;;;;5095706;28;20066;-88
2022/12/14 12:03:07;;;;;;;15.27;10.63;;;24.50;51.80;;;;;;5079667;28;20513;-88
2022/12/14 12:05:41;;;;;;;15.48;10.77;;;24.40;52.00;;;;;;5082816;28;20087;-87
2022/12/14 12:08:24;;;;;;;14.70;10.80;;;24.10;51.30;;;;;;5075997;28;20475;-88
2022/12/14 12:10:53;;;;;;;14.73;10.93;;;24.70;52.10;;;;;;5081872;28;20044;-87
2022/12/14 12:13:34;;;;;;;16.95;10.95;;;24.90;50.40;;;;;;5071547;28;20057;-89
2022/12/14 12:16:21;;;;;;;15.13;10.30;;;25.30;50.10;;;;;;5062610;28;20373;-83
2022/12/14 12:19:04;;;;;;;15.90;9.70;;;25.20;48.80;;;;;;5093414;28;20062;-83
2022/12/14 12:21:33;;;;;;;15.02;10.45;;;25.20;49.00;;;;;;5073513;28;20129;-84
2022/12/14 12:24:23;;;;;;;13.02;9.77;;;24.70;47.60;;;;;;5090448;28;20572;-81
2022/12/14 12:26:55;;;;;;;15.77;10.43;;;24.20;48.20;;;;;;5057274;28;20143;-84
2022/12/14 12:29:48;;;;;;;16.63;11.57;;;24.30;49.60;;;;;;5070615;28;20052;-83
2022/12/14 12:32:25;;;;;;;13.63;10.02;;;24.80;49.50;;;;;;5050938;28;20064;-83
2022/12/14 12:35:01;;;;;;;15.27;10.77;;;25.00;47.80;;;;;;5051251;28;20087;-83
2022/12/14 12:37:39;;;;;;;13.98;10.20;;;24.90;48.10;;;;;;5073370;28;20044;-85
2022/12/14 12:40:15;;;;;;;12.85;9.85;;;24.60;48.70;;;;;;5053547;28;20098;-84
2022/12/14 12:43:05;;;;;;;14.10;10.05;;;24.00;48.00;;;;;;5056009;28;20051;-85
2022/12/14 12:45:35;;;;;;;12.32;9.27;;;23.60;49.10;;;;;;5076118;28;20066;-84
2022/12/14 12:48:18;;;;;;;12.05;8.88;;;23.90;48.80;;;;;;5080736;28;20120;-83
2022/12/14 12:50:50;;;;;;;11.98;8.75;;;24.40;47.30;;;;;;5069532;28;20508;-84
2022/12/14 12:53:34;;;;;;;12.02;8.82;;;24.20;47.50;;;;;;5050681;28;20064;-84
2022/12/14 12:56:27;;;;;;;12.00;9.32;;;23.70;47.60;;;;;;5067839;28;20135;-84
2022/12/14 12:58:55;;;;;;;13.57;9.80;;;22.80;48.40;;;;;;5050566;28;20356;-84
2022/12/14 13:01:32;;;;;;;12.98;10.18;;;21.60;49.10;;;;;;5063032;28;20928;-87
2022/12/14 13:04:02;;;;;;;12.93;9.48;;;20.70;50.00;;;;;;5054034;28;20048;-87
2022/12/14 13:06:39;;;;;;;13.02;9.90;;;20.60;49.80;;;;;;5037139;28;20129;-86
2022/12/14 13:09:27;;;;;;;13.52;9.88;;;20.60;50.90;;;;;;5071240;28;20147;-87
2022/12/14 13:11:53;;;;;;;14.23;9.60;;;;;;;;;;5071294;28;20135;-87
2022/12/14 13:14:28;;;;;;;15.48;10.15;;;;;;;;;;5053641;28;20443;-87